sensor_id;sensor_type;location;lat;lon;timestamp;P1;durP1;ratioP1;P2;durP2;ratioP2
43325;SDS011;28920;59.862;30.636;2022-10-16T00:00:54;12.45;;;7.43;;
43325;SDS011;28920;59.862;30.636;2022-10-16T00:03:21;11.57;;;6.87;;
43325;SDS011;28920;59.862;30.636;2022-10-16T00:05:48;13.60;;;8.10;;
43325;SDS011;28920;59.862;30.636;2022-10-16T00:08:14;11.02;;;8.13;;
43325;SDS011;28920;59.862;30.636;2022-10-16T00:10:41;11.45;;;6.78;;
43325;SDS011;28920;59.862;30.636;2022-10-16T00:18:06;14.32;;;8.65;;
43325;SDS011;28920;59.862;30.636;2022-10-16T00:20:34;17.05;;;7.95;;
43325;SDS011;28920;59.862;30.636;2022-10-16T00:23:19;12.95;;;7.85;;
43325;SDS011;28920;59.862;30.636;2022-10-16T00:25:53;13.48;;;8.43;;
43325;SDS011;28920;59.862;30.636;2022-10-16T00:28:20;12.27;;;7.95;;
43325;SDS011;28920;59.862;30.636;2022-10-16T00:30:47;12.23;;;7.85;;
43325;SDS011;28920;59.862;30.636;2022-10-16T00:33:14;13.77;;;7.47;;
43325;SDS011;28920;59.862;30.636;2022-10-16T00:40:39;11.68;;;7.68;;
43325;SDS011;28920;59.862;30.636;2022-10-16T00:43:09;10.50;;;7.60;;
43325;SDS011;28920;59.862;30.636;2022-10-16T00:45:38;12.18;;;8.40;;
43325;SDS011;28920;59.862;30.636;2022-10-16T00:48:06;15.43;;;8.00;;
43325;SDS011;28920;59.862;30.636;2022-10-16T00:50:35;12.23;;;5.90;;
43325;SDS011;28920;59.862;30.636;2022-10-16T00:53:02;12.88;;;8.27;;
43325;SDS011;28920;59.862;30.636;2022-10-16T00:55:29;16.60;;;8.00;;
43325;SDS011;28920;59.862;30.636;2022-10-16T01:02:55;10.88;;;7.43;;
43325;SDS011;28920;59.862;30.636;2022-10-16T01:05:23;11.85;;;7.93;;
43325;SDS011;28920;59.862;30.636;2022-10-16T01:07:53;11.65;;;7.22;;
43325;SDS011;28920;59.862;30.636;2022-10-16T01:10:25;12.18;;;8.38;;
43325;SDS011;28920;59.862;30.636;2022-10-16T01:12:54;14.33;;;9.30;;
43325;SDS011;28920;59.862;30.636;2022-10-16T01:15:25;12.70;;;7.45;;
43325;SDS011;28920;59.862;30.636;2022-10-16T01:17:53;11.77;;;7.57;;
43325;SDS011;28920;59.862;30.636;2022-10-16T01:25:22;14.87;;;9.25;;
43325;SDS011;28920;59.862;30.636;2022-10-16T01:27:53;13.60;;;8.80;;
43325;SDS011;28920;59.862;30.636;2022-10-16T01:30:21;11.60;;;7.55;;
43325;SDS011;28920;59.862;30.636;2022-10-16T01:32:49;17.70;;;10.75;;
43325;SDS011;28920;59.862;30.636;2022-10-16T01:35:18;17.75;;;8.65;;
43325;SDS011;28920;59.862;30.636;2022-10-16T01:37:48;17.02;;;8.40;;
43325;SDS011;28920;59.862;30.636;2022-10-16T01:40:16;13.88;;;8.48;;
43325;SDS011;28920;59.862;30.636;2022-10-16T01:47:42;11.63;;;8.63;;
43325;SDS011;28920;59.862;30.636;2022-10-16T01:50:10;14.10;;;9.45;;
43325;SDS011;28920;59.862;30.636;2022-10-16T01:52:39;16.08;;;8.68;;
43325;SDS011;28920;59.862;30.636;2022-10-16T01:55:06;13.32;;;9.05;;
43325;SDS011;28920;59.862;30.636;2022-10-16T01:57:35;14.90;;;10.10;;
43325;SDS011;28920;59.862;30.636;2022-10-16T02:00:05;14.25;;;9.15;;
43325;SDS011;28920;59.862;30.636;2022-10-16T02:02:38;16.55;;;9.98;;
43325;SDS011;28920;59.862;30.636;2022-10-16T02:09:54;11.93;;;8.73;;
43325;SDS011;28920;59.862;30.636;2022-10-16T02:12:23;14.63;;;8.80;;
43325;SDS011;28920;59.862;30.636;2022-10-16T02:14:51;13.25;;;8.95;;
43325;SDS011;28920;59.862;30.636;2022-10-16T02:17:19;15.43;;;8.68;;
43325;SDS011;28920;59.862;30.636;2022-10-16T02:19:46;16.37;;;8.43;;
43325;SDS011;28920;59.862;30.636;2022-10-16T02:22:15;12.30;;;7.47;;
43325;SDS011;28920;59.862;30.636;2022-10-16T02:24:46;13.13;;;8.02;;
43325;SDS011;28920;59.862;30.636;2022-10-16T02:32:15;23.98;;;9.05;;
43325;SDS011;28920;59.862;30.636;2022-10-16T02:34:43;13.88;;;8.38;;
43325;SDS011;28920;59.862;30.636;2022-10-16T02:37:11;14.38;;;9.55;;
43325;SDS011;28920;59.862;30.636;2022-10-16T02:39:38;16.20;;;9.85;;
43325;SDS011;28920;59.862;30.636;2022-10-16T02:42:06;14.25;;;9.00;;
43325;SDS011;28920;59.862;30.636;2022-10-16T02:44:35;13.70;;;8.63;;
43325;SDS011;28920;59.862;30.636;2022-10-16T02:47:02;14.23;;;8.30;;
43325;SDS011;28920;59.862;30.636;2022-10-16T02:53:42;19.35;;;8.40;;
43325;SDS011;28920;59.862;30.636;2022-10-16T02:56:09;12.77;;;8.90;;
43325;SDS011;28920;59.862;30.636;2022-10-16T02:58:35;13.62;;;8.73;;
43325;SDS011;28920;59.862;30.636;2022-10-16T03:01:02;15.07;;;8.68;;
43325;SDS011;28920;59.862;30.636;2022-10-16T03:03:29;15.23;;;8.38;;
43325;SDS011;28920;59.862;30.636;2022-10-16T03:05:56;11.35;;;8.02;;
43325;SDS011;28920;59.862;30.636;2022-10-16T03:08:22;15.98;;;9.32;;
43325;SDS011;28920;59.862;30.636;2022-10-16T03:15:49;10.88;;;8.38;;
43325;SDS011;28920;59.862;30.636;2022-10-16T03:18:16;14.10;;;7.68;;
43325;SDS011;28920;59.862;30.636;2022-10-16T03:20:43;17.00;;;8.82;;
43325;SDS011;28920;59.862;30.636;2022-10-16T03:23:10;13.75;;;8.48;;
43325;SDS011;28920;59.862;30.636;2022-10-16T03:25:36;16.58;;;9.48;;
43325;SDS011;28920;59.862;30.636;2022-10-16T03:28:03;13.50;;;8.38;;
43325;SDS011;28920;59.862;30.636;2022-10-16T03:30:30;11.63;;;7.87;;
43325;SDS011;28920;59.862;30.636;2022-10-16T03:37:55;14.35;;;8.82;;
43325;SDS011;28920;59.862;30.636;2022-10-16T03:40:22;14.05;;;8.77;;
43325;SDS011;28920;59.862;30.636;2022-10-16T03:42:49;13.30;;;8.60;;
43325;SDS011;28920;59.862;30.636;2022-10-16T03:45:15;14.15;;;8.43;;
43325;SDS011;28920;59.862;30.636;2022-10-16T03:47:42;15.77;;;9.10;;
43325;SDS011;28920;59.862;30.636;2022-10-16T03:50:09;15.95;;;9.85;;
43325;SDS011;28920;59.862;30.636;2022-10-16T03:52:36;12.82;;;9.00;;
43325;SDS011;28920;59.862;30.636;2022-10-16T04:00:02;13.65;;;9.32;;
43325;SDS011;28920;59.862;30.636;2022-10-16T04:02:38;15.00;;;9.82;;
43325;SDS011;28920;59.862;30.636;2022-10-16T04:05:05;17.33;;;9.48;;
43325;SDS011;28920;59.862;30.636;2022-10-16T04:07:31;13.80;;;9.00;;
43325;SDS011;28920;59.862;30.636;2022-10-16T04:09:58;14.15;;;8.63;;
43325;SDS011;28920;59.862;30.636;2022-10-16T04:12:25;15.45;;;10.10;;
43325;SDS011;28920;59.862;30.636;2022-10-16T04:14:52;17.27;;;11.57;;
43325;SDS011;28920;59.862;30.636;2022-10-16T04:22:17;17.08;;;11.45;;
43325;SDS011;28920;59.862;30.636;2022-10-16T04:24:44;17.27;;;9.70;;
43325;SDS011;28920;59.862;30.636;2022-10-16T04:27:10;15.50;;;9.88;;
43325;SDS011;28920;59.862;30.636;2022-10-16T04:29:37;17.92;;;10.63;;
43325;SDS011;28920;59.862;30.636;2022-10-16T04:32:03;15.10;;;10.95;;
43325;SDS011;28920;59.862;30.636;2022-10-16T04:34:30;14.25;;;10.05;;
43325;SDS011;28920;59.862;30.636;2022-10-16T04:36:57;20.62;;;11.05;;
43325;SDS011;28920;59.862;30.636;2022-10-16T04:44:22;17.95;;;10.90;;
43325;SDS011;28920;59.862;30.636;2022-10-16T04:46:49;14.02;;;9.52;;
43325;SDS011;28920;59.862;30.636;2022-10-16T04:49:16;16.00;;;9.13;;
43325;SDS011;28920;59.862;30.636;2022-10-16T04:51:42;13.85;;;9.60;;
43325;SDS011;28920;59.862;30.636;2022-10-16T04:54:09;13.85;;;8.80;;
43325;SDS011;28920;59.862;30.636;2022-10-16T04:56:36;14.68;;;9.80;;
43325;SDS011;28920;59.862;30.636;2022-10-16T04:59:09;13.38;;;8.45;;
43325;SDS011;28920;59.862;30.636;2022-10-16T05:06:34;13.62;;;9.38;;
43325;SDS011;28920;59.862;30.636;2022-10-16T05:09:00;13.55;;;9.02;;
43325;SDS011;28920;59.862;30.636;2022-10-16T05:11:27;16.42;;;9.40;;
43325;SDS011;28920;59.862;30.636;2022-10-16T05:13:54;13.07;;;8.57;;
43325;SDS011;28920;59.862;30.636;2022-10-16T05:16:20;17.15;;;9.15;;
43325;SDS011;28920;59.862;30.636;2022-10-16T05:18:47;14.90;;;8.23;;
43325;SDS011;28920;59.862;30.636;2022-10-16T05:21:13;13.77;;;8.93;;
43325;SDS011;28920;59.862;30.636;2022-10-16T05:28:39;24.48;;;15.60;;
43325;SDS011;28920;59.862;30.636;2022-10-16T05:31:06;12.15;;;7.47;;
43325;SDS011;28920;59.862;30.636;2022-10-16T05:33:32;11.88;;;7.68;;
43325;SDS011;28920;59.862;30.636;2022-10-16T05:36:00;13.40;;;7.30;;
43325;SDS011;28920;59.862;30.636;2022-10-16T05:38:27;12.65;;;8.40;;
43325;SDS011;28920;59.862;30.636;2022-10-16T05:40:54;13.35;;;8.07;;
43325;SDS011;28920;59.862;30.636;2022-10-16T05:43:20;13.80;;;8.15;;
43325;SDS011;28920;59.862;30.636;2022-10-16T05:50:45;10.75;;;6.87;;
43325;SDS011;28920;59.862;30.636;2022-10-16T05:53:12;9.48;;;6.57;;
43325;SDS011;28920;59.862;30.636;2022-10-16T05:55:39;12.60;;;6.93;;
43325;SDS011;28920;59.862;30.636;2022-10-16T05:58:05;12.40;;;7.32;;
43325;SDS011;28920;59.862;30.636;2022-10-16T06:00:32;13.62;;;6.65;;
43325;SDS011;28920;59.862;30.636;2022-10-16T06:02:59;13.70;;;7.50;;
43325;SDS011;28920;59.862;30.636;2022-10-16T06:05:26;14.43;;;7.90;;
43325;SDS011;28920;59.862;30.636;2022-10-16T06:11:27;14.43;;;7.12;;
43325;SDS011;28920;59.862;30.636;2022-10-16T06:13:54;15.75;;;8.48;;
43325;SDS011;28920;59.862;30.636;2022-10-16T06:16:22;17.73;;;8.18;;
43325;SDS011;28920;59.862;30.636;2022-10-16T06:18:50;11.25;;;6.80;;
43325;SDS011;28920;59.862;30.636;2022-10-16T06:21:17;13.48;;;7.62;;
43325;SDS011;28920;59.862;30.636;2022-10-16T06:23:44;12.07;;;6.78;;
43325;SDS011;28920;59.862;30.636;2022-10-16T06:26:13;14.27;;;7.75;;
43325;SDS011;28920;59.862;30.636;2022-10-16T06:33:38;12.20;;;7.25;;
43325;SDS011;28920;59.862;30.636;2022-10-16T06:36:06;10.45;;;6.68;;
43325;SDS011;28920;59.862;30.636;2022-10-16T06:38:34;12.73;;;8.15;;
43325;SDS011;28920;59.862;30.636;2022-10-16T06:41:00;12.48;;;8.02;;
43325;SDS011;28920;59.862;30.636;2022-10-16T06:43:28;11.35;;;8.38;;
43325;SDS011;28920;59.862;30.636;2022-10-16T06:45:58;12.60;;;7.05;;
43325;SDS011;28920;59.862;30.636;2022-10-16T06:48:25;13.00;;;8.88;;
43325;SDS011;28920;59.862;30.636;2022-10-16T06:55:53;13.45;;;8.38;;
43325;SDS011;28920;59.862;30.636;2022-10-16T06:58:20;10.25;;;6.93;;
43325;SDS011;28920;59.862;30.636;2022-10-16T07:00:47;11.73;;;7.03;;
43325;SDS011;28920;59.862;30.636;2022-10-16T07:03:14;14.18;;;7.00;;
43325;SDS011;28920;59.862;30.636;2022-10-16T07:05:41;13.45;;;7.57;;
43325;SDS011;28920;59.862;30.636;2022-10-16T07:08:08;14.45;;;7.03;;
43325;SDS011;28920;59.862;30.636;2022-10-16T07:10:35;12.23;;;6.15;;
43325;SDS011;28920;59.862;30.636;2022-10-16T07:18:00;11.73;;;7.28;;
43325;SDS011;28920;59.862;30.636;2022-10-16T07:20:27;11.88;;;6.82;;
43325;SDS011;28920;59.862;30.636;2022-10-16T07:22:53;11.63;;;6.95;;
43325;SDS011;28920;59.862;30.636;2022-10-16T07:25:20;11.63;;;7.30;;
43325;SDS011;28920;59.862;30.636;2022-10-16T07:27:47;9.82;;;6.40;;
43325;SDS011;28920;59.862;30.636;2022-10-16T07:30:13;14.52;;;6.68;;
43325;SDS011;28920;59.862;30.636;2022-10-16T07:32:40;11.60;;;6.90;;
43325;SDS011;28920;59.862;30.636;2022-10-16T07:40:06;15.80;;;9.75;;
43325;SDS011;28920;59.862;30.636;2022-10-16T07:42:33;19.42;;;12.52;;
43325;SDS011;28920;59.862;30.636;2022-10-16T07:44:59;12.55;;;7.75;;
43325;SDS011;28920;59.862;30.636;2022-10-16T07:47:26;16.95;;;8.45;;
43325;SDS011;28920;59.862;30.636;2022-10-16T07:49:53;12.65;;;6.30;;
43325;SDS011;28920;59.862;30.636;2022-10-16T07:52:19;14.02;;;7.25;;
43325;SDS011;28920;59.862;30.636;2022-10-16T07:54:46;12.93;;;6.07;;
43325;SDS011;28920;59.862;30.636;2022-10-16T08:02:11;12.82;;;7.03;;
43325;SDS011;28920;59.862;30.636;2022-10-16T08:04:38;11.02;;;6.62;;
43325;SDS011;28920;59.862;30.636;2022-10-16T08:07:06;12.35;;;6.15;;
43325;SDS011;28920;59.862;30.636;2022-10-16T08:09:33;11.07;;;7.40;;
43325;SDS011;28920;59.862;30.636;2022-10-16T08:11:59;8.73;;;5.97;;
43325;SDS011;28920;59.862;30.636;2022-10-16T08:14:26;11.90;;;6.45;;
43325;SDS011;28920;59.862;30.636;2022-10-16T08:16:52;9.98;;;6.20;;
43325;SDS011;28920;59.862;30.636;2022-10-16T08:24:18;10.02;;;6.87;;
43325;SDS011;28920;59.862;30.636;2022-10-16T08:26:44;8.27;;;6.20;;
43325;SDS011;28920;59.862;30.636;2022-10-16T08:29:12;11.27;;;6.60;;
43325;SDS011;28920;59.862;30.636;2022-10-16T08:31:39;10.57;;;6.80;;
43325;SDS011;28920;59.862;30.636;2022-10-16T08:34:06;13.80;;;6.75;;
43325;SDS011;28920;59.862;30.636;2022-10-16T08:36:33;9.98;;;6.53;;
43325;SDS011;28920;59.862;30.636;2022-10-16T08:38:59;10.77;;;6.62;;
43325;SDS011;28920;59.862;30.636;2022-10-16T08:46:33;10.82;;;6.12;;
43325;SDS011;28920;59.862;30.636;2022-10-16T08:49:01;9.18;;;6.60;;
43325;SDS011;28920;59.862;30.636;2022-10-16T08:51:29;14.05;;;6.47;;
43325;SDS011;28920;59.862;30.636;2022-10-16T08:53:57;13.35;;;8.05;;
43325;SDS011;28920;59.862;30.636;2022-10-16T08:56:25;11.52;;;5.43;;
43325;SDS011;28920;59.862;30.636;2022-10-16T08:58:52;12.65;;;6.60;;
43325;SDS011;28920;59.862;30.636;2022-10-16T09:01:19;12.95;;;6.80;;
43325;SDS011;28920;59.862;30.636;2022-10-16T09:08:28;11.55;;;8.43;;
43325;SDS011;28920;59.862;30.636;2022-10-16T09:10:58;13.40;;;7.70;;
43325;SDS011;28920;59.862;30.636;2022-10-16T09:13:27;12.52;;;6.82;;
43325;SDS011;28920;59.862;30.636;2022-10-16T09:15:56;11.32;;;6.37;;
43325;SDS011;28920;59.862;30.636;2022-10-16T09:18:26;11.50;;;7.23;;
43325;SDS011;28920;59.862;30.636;2022-10-16T09:20:57;10.85;;;6.78;;
43325;SDS011;28920;59.862;30.636;2022-10-16T09:23:26;11.12;;;7.25;;
43325;SDS011;28920;59.862;30.636;2022-10-16T09:30:51;13.82;;;7.78;;
43325;SDS011;28920;59.862;30.636;2022-10-16T09:33:19;16.00;;;7.60;;
43325;SDS011;28920;59.862;30.636;2022-10-16T09:35:47;11.00;;;6.47;;
43325;SDS011;28920;59.862;30.636;2022-10-16T09:38:21;11.30;;;6.72;;
43325;SDS011;28920;59.862;30.636;2022-10-16T09:40:49;11.43;;;6.07;;
43325;SDS011;28920;59.862;30.636;2022-10-16T09:43:20;11.12;;;7.40;;
43325;SDS011;28920;59.862;30.636;2022-10-16T09:45:55;12.40;;;6.28;;
43325;SDS011;28920;59.862;30.636;2022-10-16T09:53:21;12.88;;;7.25;;
43325;SDS011;28920;59.862;30.636;2022-10-16T09:55:48;12.63;;;6.75;;
43325;SDS011;28920;59.862;30.636;2022-10-16T09:58:16;14.38;;;7.50;;
43325;SDS011;28920;59.862;30.636;2022-10-16T10:00:42;9.48;;;5.80;;
43325;SDS011;28920;59.862;30.636;2022-10-16T10:03:15;11.88;;;6.22;;
43325;SDS011;28920;59.862;30.636;2022-10-16T10:05:50;7.87;;;5.25;;
43325;SDS011;28920;59.862;30.636;2022-10-16T10:08:17;11.73;;;7.12;;
43325;SDS011;28920;59.862;30.636;2022-10-16T10:15:18;12.23;;;6.57;;
43325;SDS011;28920;59.862;30.636;2022-10-16T10:17:48;9.05;;;6.00;;
43325;SDS011;28920;59.862;30.636;2022-10-16T10:20:25;11.38;;;5.55;;
43325;SDS011;28920;59.862;30.636;2022-10-16T10:22:53;13.18;;;7.03;;
43325;SDS011;28920;59.862;30.636;2022-10-16T10:25:33;10.77;;;6.43;;
43325;SDS011;28920;59.862;30.636;2022-10-16T10:28:16;9.98;;;6.32;;
43325;SDS011;28920;59.862;30.636;2022-10-16T10:30:46;11.25;;;6.55;;
43325;SDS011;28920;59.862;30.636;2022-10-16T10:38:23;11.35;;;6.72;;
43325;SDS011;28920;59.862;30.636;2022-10-16T10:40:55;11.10;;;6.97;;
43325;SDS011;28920;59.862;30.636;2022-10-16T10:43:31;11.73;;;7.18;;
43325;SDS011;28920;59.862;30.636;2022-10-16T10:46:04;10.18;;;6.35;;
43325;SDS011;28920;59.862;30.636;2022-10-16T10:48:42;11.38;;;5.72;;
43325;SDS011;28920;59.862;30.636;2022-10-16T10:51:15;8.70;;;5.65;;
43325;SDS011;28920;59.862;30.636;2022-10-16T10:53:49;9.48;;;5.05;;
43325;SDS011;28920;59.862;30.636;2022-10-16T11:00:12;9.95;;;6.43;;
43325;SDS011;28920;59.862;30.636;2022-10-16T11:02:45;9.52;;;5.80;;
43325;SDS011;28920;59.862;30.636;2022-10-16T11:08:13;10.35;;;6.37;;
43325;SDS011;28920;59.862;30.636;2022-10-16T11:10:44;12.30;;;6.03;;
43325;SDS011;28920;59.862;30.636;2022-10-16T11:13:15;10.38;;;5.70;;
43325;SDS011;28920;59.862;30.636;2022-10-16T11:15:44;10.57;;;5.93;;
43325;SDS011;28920;59.862;30.636;2022-10-16T11:23:14;11.90;;;5.87;;
43325;SDS011;28920;59.862;30.636;2022-10-16T11:25:42;10.05;;;5.93;;
43325;SDS011;28920;59.862;30.636;2022-10-16T11:28:10;8.82;;;6.07;;
43325;SDS011;28920;59.862;30.636;2022-10-16T11:30:39;7.18;;;4.93;;
43325;SDS011;28920;59.862;30.636;2022-10-16T11:33:12;10.27;;;5.57;;
43325;SDS011;28920;59.862;30.636;2022-10-16T11:35:41;7.93;;;6.15;;
43325;SDS011;28920;59.862;30.636;2022-10-16T11:38:12;7.62;;;5.03;;
43325;SDS011;28920;59.862;30.636;2022-10-16T11:45:39;9.10;;;6.15;;
43325;SDS011;28920;59.862;30.636;2022-10-16T11:48:10;9.82;;;6.87;;
43325;SDS011;28920;59.862;30.636;2022-10-16T11:50:40;12.93;;;5.97;;
43325;SDS011;28920;59.862;30.636;2022-10-16T11:53:13;8.32;;;5.90;;
43325;SDS011;28920;59.862;30.636;2022-10-16T11:55:40;12.65;;;6.53;;
43325;SDS011;28920;59.862;30.636;2022-10-16T11:58:09;8.75;;;6.47;;
43325;SDS011;28920;59.862;30.636;2022-10-16T12:00:43;12.35;;;6.40;;
43325;SDS011;28920;59.862;30.636;2022-10-16T12:08:11;13.00;;;9.80;;
43325;SDS011;28920;59.862;30.636;2022-10-16T12:10:39;10.40;;;6.37;;
43325;SDS011;28920;59.862;30.636;2022-10-16T12:15:47;9.05;;;6.57;;
43325;SDS011;28920;59.862;30.636;2022-10-16T12:18:20;11.98;;;7.45;;
43325;SDS011;28920;59.862;30.636;2022-10-16T12:20:53;11.40;;;7.85;;
43325;SDS011;28920;59.862;30.636;2022-10-16T12:23:25;10.35;;;7.65;;
43325;SDS011;28920;59.862;30.636;2022-10-16T12:26:04;12.75;;;8.07;;
43325;SDS011;28920;59.862;30.636;2022-10-16T12:28:32;10.32;;;7.47;;
43325;SDS011;28920;59.862;30.636;2022-10-16T12:31:00;9.88;;;6.90;;
43325;SDS011;28920;59.862;30.636;2022-10-16T12:33:28;10.75;;;7.43;;
43325;SDS011;28920;59.862;30.636;2022-10-16T12:35:55;10.05;;;6.68;;
43325;SDS011;28920;59.862;30.636;2022-10-16T12:38:25;10.88;;;7.12;;
43325;SDS011;28920;59.862;30.636;2022-10-16T12:40:55;11.18;;;9.10;;
43325;SDS011;28920;59.862;30.636;2022-10-16T12:48:25;19.27;;;14.50;;
43325;SDS011;28920;59.862;30.636;2022-10-16T12:50:52;18.15;;;11.57;;
43325;SDS011;28920;59.862;30.636;2022-10-16T12:53:19;21.27;;;12.93;;
43325;SDS011;28920;59.862;30.636;2022-10-16T12:55:49;11.48;;;8.40;;
43325;SDS011;28920;59.862;30.636;2022-10-16T12:58:22;24.77;;;16.17;;
43325;SDS011;28920;59.862;30.636;2022-10-16T13:00:54;10.15;;;8.10;;
43325;SDS011;28920;59.862;30.636;2022-10-16T13:03:27;12.95;;;8.35;;
43325;SDS011;28920;59.862;30.636;2022-10-16T13:11:01;11.32;;;8.88;;
43325;SDS011;28920;59.862;30.636;2022-10-16T13:16:22;13.30;;;8.63;;
43325;SDS011;28920;59.862;30.636;2022-10-16T13:18:55;12.02;;;8.52;;
43325;SDS011;28920;59.862;30.636;2022-10-16T13:21:29;13.52;;;8.70;;
43325;SDS011;28920;59.862;30.636;2022-10-16T13:23:59;12.43;;;8.27;;
43325;SDS011;28920;59.862;30.636;2022-10-16T13:31:27;13.27;;;9.90;;
43325;SDS011;28920;59.862;30.636;2022-10-16T13:33:55;12.52;;;9.23;;
43325;SDS011;28920;59.862;30.636;2022-10-16T13:36:25;20.05;;;11.77;;
43325;SDS011;28920;59.862;30.636;2022-10-16T13:39:06;15.07;;;9.35;;
43325;SDS011;28920;59.862;30.636;2022-10-16T13:41:36;17.12;;;10.45;;
43325;SDS011;28920;59.862;30.636;2022-10-16T13:44:02;17.60;;;11.15;;
43325;SDS011;28920;59.862;30.636;2022-10-16T13:46:30;16.65;;;11.00;;
43325;SDS011;28920;59.862;30.636;2022-10-16T13:53:55;17.20;;;11.38;;
43325;SDS011;28920;59.862;30.636;2022-10-16T13:56:24;18.87;;;11.52;;
43325;SDS011;28920;59.862;30.636;2022-10-16T13:58:58;19.00;;;11.63;;
43325;SDS011;28920;59.862;30.636;2022-10-16T14:01:26;15.00;;;11.30;;
43325;SDS011;28920;59.862;30.636;2022-10-16T14:03:59;16.70;;;12.37;;
43325;SDS011;28920;59.862;30.636;2022-10-16T14:06:26;19.37;;;12.63;;
43325;SDS011;28920;59.862;30.636;2022-10-16T14:08:55;23.65;;;12.68;;
43325;SDS011;28920;59.862;30.636;2022-10-16T14:16:07;17.90;;;12.23;;
43325;SDS011;28920;59.862;30.636;2022-10-16T14:18:34;20.33;;;14.10;;
43325;SDS011;28920;59.862;30.636;2022-10-16T14:21:03;24.60;;;15.30;;
43325;SDS011;28920;59.862;30.636;2022-10-16T14:23:30;23.65;;;14.57;;
43325;SDS011;28920;59.862;30.636;2022-10-16T14:26:05;24.42;;;14.75;;
43325;SDS011;28920;59.862;30.636;2022-10-16T14:28:32;20.50;;;13.77;;
43325;SDS011;28920;59.862;30.636;2022-10-16T14:31:00;19.45;;;13.77;;
43325;SDS011;28920;59.862;30.636;2022-10-16T14:38:25;23.02;;;12.63;;
43325;SDS011;28920;59.862;30.636;2022-10-16T14:40:52;22.20;;;13.62;;
43325;SDS011;28920;59.862;30.636;2022-10-16T14:43:20;22.25;;;13.82;;
43325;SDS011;28920;59.862;30.636;2022-10-16T14:45:49;21.62;;;13.00;;
43325;SDS011;28920;59.862;30.636;2022-10-16T14:48:17;17.77;;;10.10;;
43325;SDS011;28920;59.862;30.636;2022-10-16T14:50:45;22.02;;;12.98;;
43325;SDS011;28920;59.862;30.636;2022-10-16T14:53:12;22.25;;;11.57;;
43325;SDS011;28920;59.862;30.636;2022-10-16T15:00:37;19.23;;;11.20;;
43325;SDS011;28920;59.862;30.636;2022-10-16T15:03:04;19.58;;;12.50;;
43325;SDS011;28920;59.862;30.636;2022-10-16T15:05:31;24.15;;;12.65;;
43325;SDS011;28920;59.862;30.636;2022-10-16T15:07:58;25.60;;;15.07;;
43325;SDS011;28920;59.862;30.636;2022-10-16T15:10:25;29.45;;;15.10;;
43325;SDS011;28920;59.862;30.636;2022-10-16T15:12:53;30.65;;;18.00;;
43325;SDS011;28920;59.862;30.636;2022-10-16T15:23:04;26.27;;;18.00;;
43325;SDS011;28920;59.862;30.636;2022-10-16T15:25:34;29.15;;;18.67;;
43325;SDS011;28920;59.862;30.636;2022-10-16T15:28:02;29.85;;;17.67;;
43325;SDS011;28920;59.862;30.636;2022-10-16T15:30:29;26.73;;;17.52;;
43325;SDS011;28920;59.862;30.636;2022-10-16T15:32:56;29.45;;;17.83;;
43325;SDS011;28920;59.862;30.636;2022-10-16T15:35:22;29.30;;;18.83;;
43325;SDS011;28920;59.862;30.636;2022-10-16T15:37:49;32.55;;;20.17;;
43325;SDS011;28920;59.862;30.636;2022-10-16T15:45:14;36.95;;;20.77;;
43325;SDS011;28920;59.862;30.636;2022-10-16T15:47:41;33.67;;;21.00;;
43325;SDS011;28920;59.862;30.636;2022-10-16T15:50:09;34.40;;;21.92;;
43325;SDS011;28920;59.862;30.636;2022-10-16T15:52:36;27.73;;;18.62;;
43325;SDS011;28920;59.862;30.636;2022-10-16T15:55:05;34.90;;;19.02;;
43325;SDS011;28920;59.862;30.636;2022-10-16T15:57:33;32.40;;;18.15;;
43325;SDS011;28920;59.862;30.636;2022-10-16T15:59:59;27.83;;;17.95;;
43325;SDS011;28920;59.862;30.636;2022-10-16T16:07:25;27.25;;;15.20;;
43325;SDS011;28920;59.862;30.636;2022-10-16T16:09:53;25.15;;;15.43;;
43325;SDS011;28920;59.862;30.636;2022-10-16T16:12:20;27.02;;;15.15;;
43325;SDS011;28920;59.862;30.636;2022-10-16T16:14:47;25.83;;;14.50;;
43325;SDS011;28920;59.862;30.636;2022-10-16T16:17:15;32.97;;;16.62;;
43325;SDS011;28920;59.862;30.636;2022-10-16T16:19:41;32.25;;;18.17;;
43325;SDS011;28920;59.862;30.636;2022-10-16T16:22:08;35.30;;;18.02;;
43325;SDS011;28920;59.862;30.636;2022-10-16T16:29:33;28.52;;;16.70;;
43325;SDS011;28920;59.862;30.636;2022-10-16T16:32:00;30.08;;;16.85;;
43325;SDS011;28920;59.862;30.636;2022-10-16T16:34:27;31.62;;;16.75;;
43325;SDS011;28920;59.862;30.636;2022-10-16T16:36:53;29.58;;;19.17;;
43325;SDS011;28920;59.862;30.636;2022-10-16T16:39:20;36.45;;;18.48;;
43325;SDS011;28920;59.862;30.636;2022-10-16T16:41:47;35.67;;;18.50;;
43325;SDS011;28920;59.862;30.636;2022-10-16T16:44:14;36.05;;;19.12;;
43325;SDS011;28920;59.862;30.636;2022-10-16T16:50:15;34.38;;;19.87;;
43325;SDS011;28920;59.862;30.636;2022-10-16T16:52:42;36.63;;;20.55;;
43325;SDS011;28920;59.862;30.636;2022-10-16T16:55:08;33.70;;;21.52;;
43325;SDS011;28920;59.862;30.636;2022-10-16T16:57:35;36.72;;;21.75;;
43325;SDS011;28920;59.862;30.636;2022-10-16T17:00:02;35.28;;;22.40;;
43325;SDS011;28920;59.862;30.636;2022-10-16T17:02:29;31.48;;;19.62;;
43325;SDS011;28920;59.862;30.636;2022-10-16T17:04:56;33.88;;;20.48;;
43325;SDS011;28920;59.862;30.636;2022-10-16T17:12:21;35.67;;;21.40;;
43325;SDS011;28920;59.862;30.636;2022-10-16T17:14:50;30.55;;;20.52;;
43325;SDS011;28920;59.862;30.636;2022-10-16T17:17:16;38.03;;;21.65;;
43325;SDS011;28920;59.862;30.636;2022-10-16T17:19:43;33.13;;;19.67;;
43325;SDS011;28920;59.862;30.636;2022-10-16T17:22:10;33.80;;;18.73;;
43325;SDS011;28920;59.862;30.636;2022-10-16T17:24:36;29.85;;;17.67;;
43325;SDS011;28920;59.862;30.636;2022-10-16T17:27:03;33.38;;;18.55;;
43325;SDS011;28920;59.862;30.636;2022-10-16T17:33:48;28.23;;;17.02;;
43325;SDS011;28920;59.862;30.636;2022-10-16T17:36:16;29.80;;;17.75;;
43325;SDS011;28920;59.862;30.636;2022-10-16T17:38:44;29.50;;;17.55;;
43325;SDS011;28920;59.862;30.636;2022-10-16T17:41:11;29.95;;;17.52;;
43325;SDS011;28920;59.862;30.636;2022-10-16T17:43:38;31.00;;;19.05;;
43325;SDS011;28920;59.862;30.636;2022-10-16T17:46:05;28.92;;;16.23;;
43325;SDS011;28920;59.862;30.636;2022-10-16T17:48:35;33.33;;;17.30;;
43325;SDS011;28920;59.862;30.636;2022-10-16T17:56:04;29.25;;;17.90;;
43325;SDS011;28920;59.862;30.636;2022-10-16T17:58:31;34.78;;;19.00;;
43325;SDS011;28920;59.862;30.636;2022-10-16T18:00:57;30.48;;;17.30;;
43325;SDS011;28920;59.862;30.636;2022-10-16T18:03:24;25.73;;;16.12;;
43325;SDS011;28920;59.862;30.636;2022-10-16T18:05:52;26.33;;;17.92;;
43325;SDS011;28920;59.862;30.636;2022-10-16T18:08:18;32.97;;;19.27;;
43325;SDS011;28920;59.862;30.636;2022-10-16T18:10:45;32.08;;;16.67;;
43325;SDS011;28920;59.862;30.636;2022-10-16T18:17:42;29.60;;;18.17;;
43325;SDS011;28920;59.862;30.636;2022-10-16T18:20:10;26.08;;;15.48;;
43325;SDS011;28920;59.862;30.636;2022-10-16T18:22:36;28.58;;;16.50;;
43325;SDS011;28920;59.862;30.636;2022-10-16T18:25:04;31.55;;;17.62;;
43325;SDS011;28920;59.862;30.636;2022-10-16T18:27:31;32.22;;;18.00;;
43325;SDS011;28920;59.862;30.636;2022-10-16T18:29:58;33.97;;;17.87;;
43325;SDS011;28920;59.862;30.636;2022-10-16T18:32:25;31.83;;;17.65;;